Time;durP1;ratioP1;P1;durP2;ratioP2;P2;SDS_P1;SDS_P2;PMS_P1;PMS_P2;Temp;Humidity;BMP_temperature;BMP_pressure;BME280_temperature;BME280_humidity;BME280_pressure;Samples;Min_cycle;Max_cycle;Signal;HPM_P1;HPM_P2
2022/06/08 00:01:20;;;;;;;5.45;2.60;;;11.10;99.90;;;;;;4995626;28;20046;-68
2022/06/08 00:03:51;;;;;;;3.58;2.70;;;11.00;99.90;;;;;;4995921;28;20534;-68
2022/06/08 00:06:17;;;;;;;5.75;3.90;;;10.80;99.90;;;;;;4996913;28;20057;-68
2022/06/08 00:08:43;;;;;;;5.82;3.20;;;11.10;99.90;;;;;;4979884;28;20047;-68
2022/06/08 00:11:09;;;;;;;3.58;3.28;;;10.90;99.90;;;;;;4996770;28;20054;-68
2022/06/08 00:13:36;;;;;;;5.25;3.65;;;11.10;99.90;;;;;;4995720;28;20073;-68
2022/06/08 00:16:02;;;;;;;4.82;3.75;;;10.90;99.90;;;;;;4996669;28;20050;-68
2022/06/08 00:18:28;;;;;;;8.93;3.67;;;10.90;99.90;;;;;;4995229;28;20487;-68
2022/06/08 00:20:54;;;;;;;4.47;3.47;;;10.90;99.90;;;;;;4996577;28;20049;-68
2022/06/08 00:23:20;;;;;;;6.03;3.67;;;11.00;99.90;;;;;;4996666;28;20196;-68
2022/06/08 00:25:46;;;;;;;8.85;3.92;;;10.90;99.90;;;;;;4995229;28;20046;-69
2022/06/08 00:28:13;;;;;;;7.43;4.30;;;11.10;99.90;;;;;;4996337;28;20091;-68
2022/06/08 00:30:38;;;;;;;8.80;4.03;;;10.80;99.90;;;;;;4995813;28;20053;-68
2022/06/08 00:33:04;;;;;;;7.00;4.22;;;10.90;99.90;;;;;;4995149;28;20046;-69
2022/06/08 00:35:30;;;;;;;7.00;3.72;;;10.80;99.90;;;;;;4996670;28;20046;-68
2022/06/08 00:37:56;;;;;;;6.95;3.95;;;11.00;99.90;;;;;;4995298;28;20157;-68
2022/06/08 00:40:27;;;;;;;6.82;3.75;;;11.00;99.90;;;;;;4997103;28;20046;-68
2022/06/08 00:42:53;;;;;;;4.88;3.88;;;10.80;99.90;;;;;;4997090;28;20415;-69
2022/06/08 00:45:21;;;;;;;6.43;4.28;;;10.80;99.90;;;;;;4995582;28;20061;-68
2022/06/08 00:48:00;;;;;;;6.03;4.05;;;10.90;99.90;;;;;;4996096;28;20056;-68
2022/06/08 00:50:33;;;;;;;7.15;4.32;;;10.70;99.90;;;;;;4996774;28;20117;-68
2022/06/08 00:52:59;;;;;;;4.38;3.97;;;10.70;99.90;;;;;;4994788;28;20046;-68
2022/06/08 00:55:29;;;;;;;7.32;4.50;;;10.70;99.90;;;;;;4995963;28;20502;-68
2022/06/08 00:58:10;;;;;;;9.30;4.50;;;10.50;99.90;;;;;;4994779;28;20046;-68
2022/06/08 01:00:38;;;;;;;7.05;4.47;;;10.80;99.90;;;;;;4996427;28;20096;-68
2022/06/08 01:03:09;;;;;;;5.68;4.45;;;10.80;99.90;;;;;;4995123;28;20061;-68
2022/06/08 01:05:46;;;;;;;6.70;3.97;;;10.80;99.90;;;;;;4995883;28;20097;-69
2022/06/08 01:08:35;;;;;;;10.63;4.72;;;10.80;99.90;;;;;;4994708;28;20108;-68
2022/06/08 01:11:07;;;;;;;7.15;4.00;;;10.90;99.90;;;;;;4995673;28;20046;-68
2022/06/08 01:13:35;;;;;;;6.57;4.13;;;11.00;99.90;;;;;;4994686;28;20042;-68
2022/06/08 01:16:06;;;;;;;5.72;3.95;;;10.80;99.90;;;;;;4995608;28;20046;-68
2022/06/08 01:18:33;;;;;;;6.97;4.53;;;10.90;99.90;;;;;;4995516;28;20430;-68
2022/06/08 01:21:21;;;;;;;5.78;4.20;;;11.10;99.90;;;;;;4995523;28;20046;-68
2022/06/08 01:23:50;;;;;;;6.88;4.25;;;10.90;99.90;;;;;;4995382;28;20054;-68
2022/06/08 01:26:20;;;;;;;6.03;3.92;;;10.90;99.90;;;;;;4995385;28;20058;-68
2022/06/08 01:29:01;;;;;;;8.45;4.30;;;10.80;99.90;;;;;;4994941;28;20050;-68
2022/06/08 01:31:35;;;;;;;4.97;3.50;;;10.70;99.90;;;;;;4994935;28;20487;-68
2022/06/08 01:34:04;;;;;;;6.95;4.15;;;11.00;99.90;;;;;;4995221;28;20553;-68
2022/06/08 01:36:29;;;;;;;5.10;4.22;;;10.80;99.90;;;;;;4995204;28;20082;-68
2022/06/08 01:39:05;;;;;;;7.65;4.38;;;11.30;99.90;;;;;;4995115;28;20057;-68
2022/06/08 01:42:06;;;;;;;6.30;4.30;;;10.70;99.90;;;;;;4994156;28;20129;-68
2022/06/08 01:44:41;;;;;;;8.15;4.50;;;10.80;99.90;;;;;;4995522;28;20379;-68
2022/06/08 01:47:17;;;;;;;5.82;4.13;;;10.70;99.90;;;;;;4993855;28;20046;-68
2022/06/08 01:49:53;;;;;;;7.60;4.72;;;10.70;99.90;;;;;;4995204;28;20064;-68
2022/06/08 01:52:36;;;;;;;7.60;4.63;;;10.70;99.90;;;;;;4995402;28;20050;-68
2022/06/08 01:55:19;;;;;;;5.35;3.95;;;10.70;99.90;;;;;;4995587;28;20074;-68
2022/06/08 01:58:08;;;;;;;6.40;4.18;;;11.00;99.90;;;;;;4994333;28;20541;-68
2022/06/08 02:01:11;;;;;;;9.05;4.53;;;10.60;99.90;;;;;;4994497;28;20049;-68
2022/06/08 02:04:03;;;;;;;7.43;4.82;;;10.60;99.90;;;;;;4986240;28;20423;-68
2022/06/08 02:06:50;;;;;;;8.30;4.78;;;10.60;99.90;;;;;;4993814;28;20093;-68
2022/06/08 02:09:33;;;;;;;7.43;4.55;;;10.70;99.90;;;;;;4993662;28;20517;-68
2022/06/08 02:12:08;;;;;;;6.47;4.90;;;10.50;99.90;;;;;;4995438;28;20046;-68
2022/06/08 02:14:37;;;;;;;6.57;4.85;;;10.50;99.90;;;;;;4995019;28;20280;-68
2022/06/08 02:17:15;;;;;;;6.40;4.65;;;10.60;99.90;;;;;;4993571;28;20054;-68
2022/06/08 02:19:46;;;;;;;6.95;4.38;;;10.60;99.90;;;;;;4994468;28;20058;-68
2022/06/08 02:22:23;;;;;;;9.80;5.40;;;10.50;99.90;;;;;;4994477;28;20038;-68
2022/06/08 02:25:22;;;;;;;7.65;4.97;;;10.80;99.90;;;;;;4994483;28;20042;-68
2022/06/08 02:28:03;;;;;;;8.20;4.45;;;10.50;99.90;;;;;;4990880;28;20061;-68
2022/06/08 02:30:32;;;;;;;8.40;5.03;;;10.50;99.90;;;;;;4995044;28;20050;-68
2022/06/08 02:36:18;;;;;;;7.90;4.78;;;10.50;99.90;;;;;;4994141;28;20057;-68
2022/06/08 02:38:50;;;;;;;6.35;4.82;;;10.50;99.90;;;;;;4994655;28;20050;-67
2022/06/08 02:41:18;;;;;;;7.63;5.07;;;10.70;99.90;;;;;;4994190;28;20046;-68
2022/06/08 02:43:48;;;;;;;7.53;5.00;;;10.40;99.90;;;;;;4994549;28;20372;-68
2022/06/08 02:46:26;;;;;;;7.07;5.07;;;10.70;99.90;;;;;;4994392;28;20121;-68
2022/06/08 02:48:52;;;;;;;6.90;5.40;;;10.50;99.90;;;;;;4993871;28;20069;-67
2022/06/08 02:51:27;;;;;;;7.15;5.22;;;10.40;99.90;;;;;;4994831;28;20050;-68
2022/06/08 02:54:02;;;;;;;7.57;5.18;;;10.40;99.90;;;;;;4994354;28;20057;-68
2022/06/08 02:56:45;;;;;;;7.43;4.40;;;10.40;99.90;;;;;;4994070;28;20050;-68
2022/06/08 02:59:17;;;;;;;7.97;5.13;;;10.40;99.90;;;;;;4993819;28;20133;-68
2022/06/08 03:02:04;;;;;;;12.25;5.68;;;10.40;99.90;;;;;;4993826;28;20073;-68
2022/06/08 03:04:41;;;;;;;8.50;5.40;;;10.60;99.90;;;;;;4993887;28;20046;-68
2022/06/08 03:07:16;;;;;;;10.77;5.40;;;10.40;99.90;;;;;;4994000;28;20129;-68
2022/06/08 03:09:43;;;;;;;10.45;5.53;;;10.40;99.90;;;;;;4993900;28;20054;-68
2022/06/08 03:12:15;;;;;;;9.55;5.13;;;10.40;99.90;;;;;;4994471;28;20069;-68
2022/06/08 03:14:43;;;;;;;7.73;5.70;;;10.60;99.90;;;;;;4993770;28;20050;-68
2022/06/08 03:17:10;;;;;;;8.18;5.30;;;10.40;99.90;;;;;;4992509;28;20853;-68
2022/06/08 03:19:37;;;;;;;7.45;6.03;;;10.70;99.90;;;;;;4993504;28;20050;-68
2022/06/08 03:22:04;;;;;;;8.73;5.70;;;10.40;99.90;;;;;;4994279;28;20047;-68
2022/06/08 03:24:30;;;;;;;9.13;5.75;;;10.40;99.90;;;;;;4994472;28;20042;-68
2022/06/08 03:27:00;;;;;;;8.82;5.80;;;10.70;99.90;;;;;;4994485;28;20050;-68
2022/06/08 03:29:26;;;;;;;10.68;6.15;;;10.70;99.90;;;;;;4976396;28;20042;-68
2022/06/08 03:31:53;;;;;;;11.05;6.40;;;10.40;99.90;;;;;;4993506;28;20042;-68
2022/06/08 03:34:19;;;;;;;9.48;6.03;;;10.40;99.90;;;;;;4992652;28;20455;-68
2022/06/08 03:36:45;;;;;;;7.65;6.22;;;10.40;99.90;;;;;;4993584;28;20089;-68
2022/06/08 03:39:12;;;;;;;9.70;6.70;;;10.60;99.90;;;;;;4992741;28;20093;-68
2022/06/08 03:41:37;;;;;;;9.95;6.35;;;10.40;99.90;;;;;;4993563;28;20057;-68
2022/06/08 03:44:04;;;;;;;9.07;6.13;;;10.50;99.90;;;;;;4994104;28;20042;-68
2022/06/08 03:46:35;;;;;;;8.25;6.10;;;10.50;99.90;;;;;;4992837;28;20133;-67
2022/06/08 03:49:01;;;;;;;10.80;6.65;;;10.70;99.90;;;;;;4993566;28;20069;-68
2022/06/08 03:51:28;;;;;;;11.10;6.80;;;10.50;99.90;;;;;;4992239;28;20055;-67
2022/06/08 03:54:00;;;;;;;9.63;6.68;;;10.70;99.90;;;;;;4993386;28;20407;-68
2022/06/08 03:56:29;;;;;;;12.75;7.32;;;10.50;99.90;;;;;;4992262;28;20054;-67
2022/06/08 03:58:56;;;;;;;10.95;6.80;;;10.50;99.90;;;;;;4993229;28;20455;-67
2022/06/08 04:01:22;;;;;;;11.98;7.38;;;10.90;99.90;;;;;;4993271;28;20046;-68
2022/06/08 04:03:50;;;;;;;11.98;7.13;;;10.60;99.90;;;;;;4993472;28;20050;-68
2022/06/08 04:06:17;;;;;;;11.38;7.38;;;11.20;99.90;;;;;;4996892;28;20046;-68
2022/06/08 04:08:43;;;;;;;10.57;6.80;;;10.60;99.90;;;;;;4997606;28;20046;-67
2022/06/08 04:11:08;;;;;;;14.18;7.63;;;10.70;99.90;;;;;;4996829;28;20529;-67
2022/06/08 04:13:34;;;;;;;12.35;7.78;;;10.80;99.90;;;;;;4995497;28;20133;-69
2022/06/08 04:16:02;;;;;;;13.32;8.00;;;10.90;99.90;;;;;;4996301;28;20061;-68
2022/06/08 04:18:28;;;;;;;13.70;8.50;;;10.80;99.90;;;;;;4996692;28;20046;-68
2022/06/08 04:20:56;;;;;;;14.40;8.25;;;10.90;99.90;;;;;;4996707;28;20054;-68
2022/06/08 04:23:25;;;;;;;14.60;8.65;;;11.00;99.90;;;;;;4995321;28;20054;-68
2022/06/08 04:25:52;;;;;;;12.82;8.40;;;11.10;99.90;;;;;;4996546;28;20058;-68
2022/06/08 04:28:19;;;;;;;12.77;8.38;;;11.00;99.90;;;;;;4995687;28;20055;-68
2022/06/08 04:30:45;;;;;;;17.38;8.13;;;11.00;99.90;;;;;;4996421;28;20046;-68
2022/06/08 04:33:12;;;;;;;14.25;8.48;;;11.10;99.90;;;;;;4996279;28;20042;-68
2022/06/08 04:35:38;;;;;;;13.38;8.38;;;11.10;99.90;;;;;;4996399;28;20133;-68
2022/06/08 04:38:05;;;;;;;13.90;8.70;;;11.10;99.90;;;;;;4996385;28;20371;-68
2022/06/08 04:40:32;;;;;;;13.75;8.73;;;11.20;99.90;;;;;;4996282;28;20054;-68
2022/06/08 04:42:58;;;;;;;14.43;9.13;;;11.40;99.90;;;;;;4995633;28;20153;-68
2022/06/08 04:45:25;;;;;;;14.60;9.23;;;11.40;99.90;;;;;;4978853;28;20078;-68
2022/06/08 04:47:50;;;;;;;11.73;7.68;;;11.60;99.90;;;;;;4995228;28;20046;-68
2022/06/08 04:50:16;;;;;;;13.52;8.98;;;11.60;99.90;;;;;;4996686;28;20054;-68
2022/06/08 04:52:42;;;;;;;13.93;9.02;;;11.50;99.90;;;;;;4995962;28;20061;-68
2022/06/08 04:55:09;;;;;;;14.57;9.50;;;11.50;99.90;;;;;;4995360;28;20120;-68
2022/06/08 04:57:37;;;;;;;12.23;9.18;;;11.50;99.90;;;;;;4978690;28;20054;-69
2022/06/08 05:00:09;;;;;;;12.32;8.45;;;11.60;99.90;;;;;;4995940;28;20054;-69
2022/06/08 05:02:44;;;;;;;16.95;10.80;;;11.70;99.90;;;;;;4996435;28;20042;-68
2022/06/08 05:05:20;;;;;;;13.63;9.13;;;11.70;99.90;;;;;;4994863;28;20545;-68
2022/06/08 05:07:47;;;;;;;13.45;8.55;;;11.80;99.90;;;;;;4995598;28;20463;-68
2022/06/08 05:10:13;;;;;;;13.50;9.68;;;12.10;99.90;;;;;;4995580;28;20050;-68
2022/06/08 05:12:40;;;;;;;15.75;9.93;;;12.00;99.90;;;;;;4995608;28;20479;-68
2022/06/08 05:15:09;;;;;;;17.45;9.90;;;12.30;99.90;;;;;;4994569;28;20061;-68
2022/06/08 05:17:35;;;;;;;14.70;9.88;;;12.30;99.90;;;;;;4995636;28;20109;-68
2022/06/08 05:20:02;;;;;;;14.90;10.48;;;12.50;99.90;;;;;;4995525;28;20417;-68
2022/06/08 05:22:27;;;;;;;15.95;10.88;;;12.50;99.90;;;;;;4994604;28;20097;-68
2022/06/08 05:24:54;;;;;;;18.67;10.60;;;12.60;99.90;;;;;;4993920;28;20089;-68
2022/06/08 05:27:20;;;;;;;16.60;10.77;;;12.80;99.90;;;;;;4995218;28;20046;-68
2022/06/08 05:29:45;;;;;;;15.80;10.18;;;12.90;99.90;;;;;;4996095;28;20367;-68
2022/06/08 05:32:11;;;;;;;15.73;10.32;;;12.90;99.90;;;;;;4995441;28;20047;-68
2022/06/08 05:34:37;;;;;;;15.80;10.55;;;13.00;99.90;;;;;;4995815;28;20121;-68
2022/06/08 05:37:03;;;;;;;17.88;11.30;;;13.10;99.90;;;;;;4994190;28;20114;-68
2022/06/08 05:39:29;;;;;;;16.63;11.32;;;13.10;99.90;;;;;;4995124;28;20046;-68
2022/06/08 05:41:55;;;;;;;15.82;11.02;;;13.20;99.90;;;;;;4994177;28;20054;-68
2022/06/08 05:44:20;;;;;;;15.82;11.50;;;13.20;99.90;;;;;;4993807;28;20122;-68
2022/06/08 05:46:50;;;;;;;16.85;10.38;;;13.30;99.90;;;;;;4995008;28;20178;-68
2022/06/08 05:49:17;;;;;;;16.80;11.48;;;13.30;99.90;;;;;;4993682;28;20411;-68
2022/06/08 05:51:44;;;;;;;14.80;10.88;;;13.30;99.90;;;;;;4995124;28;20084;-68
2022/06/08 05:54:11;;;;;;;14.40;10.32;;;13.40;99.90;;;;;;4994865;28;20046;-68
2022/06/08 05:56:37;;;;;;;16.02;10.95;;;13.40;99.90;;;;;;4994223;28;20038;-68
2022/06/08 05:59:04;;;;;;;16.92;11.55;;;13.40;99.90;;;;;;4994704;28;20050;-69
2022/06/08 06:01:31;;;;;;;14.25;11.20;;;13.60;99.90;;;;;;4994654;28;20057;-68
2022/06/08 06:03:59;;;;;;;17.42;10.60;;;13.50;99.90;;;;;;4994305;28;20384;-68
2022/06/08 06:06:25;;;;;;;17.45;11.73;;;13.50;99.90;;;;;;4994002;28;20069;-68
2022/06/08 06:08:51;;;;;;;17.75;11.57;;;13.60;99.90;;;;;;4993630;28;20050;-68
2022/06/08 06:11:16;;;;;;;22.40;12.32;;;13.50;99.90;;;;;;4994870;28;20157;-68
2022/06/08 06:13:42;;;;;;;16.73;12.38;;;13.60;99.90;;;;;;4994473;28;20038;-68
2022/06/08 06:16:09;;;;;;;20.55;12.95;;;13.70;99.90;;;;;;4993369;28;20043;-68
2022/06/08 06:18:35;;;;;;;15.77;12.15;;;13.70;99.90;;;;;;4994504;28;20053;-68
2022/06/08 06:21:01;;;;;;;18.73;12.20;;;13.80;99.90;;;;;;4994443;28;20054;-68
2022/06/08 06:23:29;;;;;;;20.00;12.48;;;13.80;99.90;;;;;;4993668;28;20049;-68
2022/06/08 06:25:55;;;;;;;18.90;13.07;;;13.90;99.90;;;;;;4994363;28;20050;-68
2022/06/08 06:28:21;;;;;;;20.00;13.23;;;14.00;99.90;;;;;;4994184;28;20384;-68
2022/06/08 06:30:47;;;;;;;18.90;12.88;;;14.00;99.90;;;;;;4992979;28;20077;-68
2022/06/08 06:33:14;;;;;;;19.92;12.23;;;14.00;99.90;;;;;;4994257;28;20046;-68
2022/06/08 06:35:41;;;;;;;17.25;12.75;;;14.10;99.90;;;;;;4995284;28;20120;-68
2022/06/08 06:38:08;;;;;;;19.17;13.23;;;14.10;99.90;;;;;;4993090;28;20124;-68
2022/06/08 06:40:35;;;;;;;19.13;12.73;;;14.20;99.90;;;;;;4992698;28;20509;-68
2022/06/08 06:43:01;;;;;;;20.85;12.73;;;14.20;99.90;;;;;;4994115;28;20054;-68
2022/06/08 06:45:28;;;;;;;18.65;13.10;;;14.30;99.90;;;;;;4994122;28;20414;-68
2022/06/08 06:47:54;;;;;;;19.30;11.95;;;14.30;99.90;;;;;;4994114;28;20049;-68
2022/06/08 06:50:20;;;;;;;17.20;13.02;;;14.40;99.90;;;;;;4995175;28;20370;-68
2022/06/08 06:52:46;;;;;;;18.58;12.75;;;14.50;99.90;;;;;;4993880;28;20043;-68
2022/06/08 06:55:20;;;;;;;21.15;13.23;;;14.60;99.90;;;;;;4994737;28;20057;-68
2022/06/08 06:57:46;;;;;;;18.95;13.20;;;14.60;99.90;;;;;;4994481;28;20526;-68
2022/06/08 07:00:12;;;;;;;17.58;12.45;;;14.70;99.90;;;;;;4993844;28;20138;-69
2022/06/08 07:02:38;;;;;;;19.08;13.35;;;14.80;99.90;;;;;;4993115;28;20109;-68
2022/06/08 07:05:04;;;;;;;18.40;12.75;;;14.90;99.90;;;;;;4992686;28;20050;-68
2022/06/08 07:07:30;;;;;;;16.50;11.77;;;14.90;99.90;;;;;;4993935;28;20050;-68
2022/06/08 07:09:55;;;;;;;17.65;11.80;;;15.00;99.90;;;;;;4993302;28;20073;-69
2022/06/08 07:12:21;;;;;;;15.88;11.48;;;15.00;99.90;;;;;;4993727;28;20094;-68
2022/06/08 07:14:46;;;;;;;15.98;11.93;;;15.00;99.90;;;;;;4993547;28;20042;-68
2022/06/08 07:17:12;;;;;;;16.35;10.85;;;15.10;99.90;;;;;;4994137;28;20129;-68
2022/06/08 07:19:38;;;;;;;18.45;11.15;;;15.10;99.90;;;;;;4994694;28;20485;-68
2022/06/08 07:22:04;;;;;;;16.08;10.38;;;15.10;99.90;;;;;;4993037;28;20058;-68
2022/06/08 07:24:33;;;;;;;13.65;10.07;;;15.20;99.90;;;;;;4993099;28;20499;-68
2022/06/08 07:27:00;;;;;;;14.13;10.15;;;15.20;99.90;;;;;;4993855;28;20121;-69
2022/06/08 07:29:25;;;;;;;13.35;10.07;;;15.30;99.90;;;;;;4993588;28;20100;-69
2022/06/08 07:31:51;;;;;;;16.48;10.25;;;15.40;99.90;;;;;;4993581;28;20137;-68
2022/06/08 07:34:17;;;;;;;14.20;9.52;;;15.50;99.90;;;;;;4994171;28;20050;-69
2022/06/08 07:36:44;;;;;;;12.52;9.45;;;15.60;99.90;;;;;;4992421;28;20065;-69
2022/06/08 07:39:10;;;;;;;13.80;9.52;;;15.70;99.90;;;;;;4994289;28;20050;-68
2022/06/08 07:41:36;;;;;;;12.30;9.32;;;15.80;99.90;;;;;;4979907;28;20058;-68
2022/06/08 07:44:02;;;;;;;13.48;8.82;;;15.90;99.90;;;;;;4997496;28;20054;-68
2022/06/08 07:46:29;;;;;;;12.40;8.55;;;15.90;99.90;;;;;;4997479;28;20092;-69
2022/06/08 07:51:40;;;;;;;13.30;9.15;;;16.00;99.90;;;;;;4997837;28;20058;-68
2022/06/08 07:54:06;;;;;;;12.27;8.98;;;16.20;99.90;;;;;;4997281;28;20047;-68
2022/06/08 07:56:32;;;;;;;9.48;6.97;;;16.30;99.90;;;;;;4996047;28;20046;-68
2022/06/08 07:58:58;;;;;;;9.90;7.07;;;16.30;99.90;;;;;;4997197;28;20096;-68
2022/06/08 08:01:23;;;;;;;9.40;7.38;;;16.40;99.90;;;;;;4996969;28;20041;-68
2022/06/08 08:03:49;;;;;;;11.60;7.30;;;16.50;99.90;;;;;;4996143;28;20054;-68
2022/06/08 08:06:15;;;;;;;10.48;8.05;;;16.50;99.90;;;;;;4997086;28;20400;-68
2022/06/08 08:08:40;;;;;;;9.20;7.50;;;16.60;99.90;;;;;;4997807;28;20093;-68
2022/06/08 08:11:06;;;;;;;9.52;6.80;;;16.60;99.90;;;;;;4996978;28;20430;-68
2022/06/08 08:13:33;;;;;;;9.13;6.80;;;16.70;99.90;;;;;;4995714;28;20043;-68
2022/06/08 08:15:59;;;;;;;9.50;7.13;;;16.80;99.90;;;;;;4996297;28;20092;-69
2022/06/08 08:18:24;;;;;;;10.25;7.60;;;16.80;99.90;;;;;;4996063;28;20129;-70
2022/06/08 08:20:50;;;;;;;9.93;7.88;;;16.90;99.90;;;;;;4996925;28;20058;-69
2022/06/08 08:23:16;;;;;;;10.27;7.70;;;17.10;99.90;;;;;;4996635;28;20176;-69
2022/06/08 08:25:42;;;;;;;9.73;7.55;;;17.20;99.90;;;;;;4996366;28;20047;-70
2022/06/08 08:28:08;;;;;;;11.23;7.63;;;17.20;99.90;;;;;;4996481;28;20050;-70
2022/06/08 08:30:34;;;;;;;9.57;6.75;;;17.30;99.90;;;;;;4995325;28;20046;-67
2022/06/08 08:33:01;;;;;;;9.90;7.00;;;17.40;99.90;;;;;;4996525;28;20057;-68
2022/06/08 08:35:27;;;;;;;10.00;5.10;;;17.50;99.90;;;;;;4996064;28;20494;-67
2022/06/08 08:37:55;;;;;;;9.82;6.22;;;17.50;99.90;;;;;;4979241;28;20061;-67
2022/06/08 08:40:26;;;;;;;7.70;5.40;;;17.60;99.90;;;;;;4996381;28;20050;-66
2022/06/08 08:42:52;;;;;;;7.07;5.47;;;17.60;99.90;;;;;;4996930;28;20042;-68
2022/06/08 08:45:18;;;;;;;7.82;5.53;;;17.70;99.90;;;;;;4963854;28;20107;-67
2022/06/08 08:48:00;;;;;;;5.32;3.55;;;17.70;99.90;;;;;;4996261;28;20046;-68
2022/06/08 08:50:41;;;;;;;5.38;3.80;;;17.80;99.90;;;;;;4997107;28;20370;-67
2022/06/08 08:53:40;;;;;;;3.42;2.58;;;17.90;99.90;;;;;;4996157;28;20038;-68
2022/06/08 08:56:24;;;;;;;2.28;1.60;;;18.00;99.90;;;;;;4996338;28;20049;-68
2022/06/08 08:58:50;;;;;;;3.22;2.15;;;18.00;99.90;;;;;;4996971;28;20089;-68
2022/06/08 09:01:24;;;;;;;3.03;1.95;;;18.10;99.90;;;;;;4995809;28;20053;-69
2022/06/08 09:03:56;;;;;;;2.63;1.48;;;18.10;99.90;;;;;;4996105;28;20049;-68
2022/06/08 09:06:26;;;;;;;2.10;1.67;;;18.30;99.90;;;;;;4994886;28;20056;-68
2022/06/08 09:08:55;;;;;;;3.83;1.30;;;18.30;99.90;;;;;;4994342;28;20048;-69
2022/06/08 09:11:24;;;;;;;2.97;1.42;;;18.50;99.90;;;;;;4995275;28;20044;-69
2022/06/08 09:13:52;;;;;;;3.08;1.58;;;18.60;99.90;;;;;;4995048;28;20065;-69
2022/06/08 09:16:39;;;;;;;2.50;2.08;;;18.70;99.90;;;;;;4994766;28;20092;-68
2022/06/08 09:19:24;;;;;;;3.75;2.13;;;18.80;99.90;;;;;;4995151;28;20047;-69
2022/06/08 09:21:59;;;;;;;4.43;2.15;;;18.80;99.90;;;;;;4994692;28;20042;-69
2022/06/08 09:24:52;;;;;;;2.75;1.75;;;18.90;99.90;;;;;;4994567;28;20117;-68
2022/06/08 09:27:36;;;;;;;3.05;2.20;;;18.90;99.90;;;;;;4994657;28;20084;-69
2022/06/08 09:30:08;;;;;;;5.80;2.05;;;19.00;99.90;;;;;;4993294;28;20038;-69
2022/06/08 09:32:50;;;;;;;4.50;1.73;;;19.00;99.90;;;;;;4994271;28;20493;-69
2022/06/08 09:35:19;;;;;;;2.03;1.33;;;19.10;99.90;;;;;;4993736;28;20510;-69
2022/06/08 09:37:46;;;;;;;2.63;1.55;;;19.20;99.90;;;;;;4994749;28;20371;-69
2022/06/08 09:40:37;;;;;;;3.83;2.03;;;19.20;99.90;;;;;;4994153;28;20447;-68
2022/06/08 09:43:13;;;;;;;2.92;1.67;;;19.20;99.90;;;;;;4995236;28;20070;-69
2022/06/08 09:45:48;;;;;;;3.03;1.75;;;19.30;99.90;;;;;;4994978;28;20039;-68
2022/06/08 09:51:39;;;;;;;2.88;1.75;;;19.50;99.90;;;;;;4994752;28;20054;-69
2022/06/08 09:54:19;;;;;;;3.05;1.40;;;19.60;99.90;;;;;;4994734;28;20046;-69
2022/06/08 09:56:54;;;;;;;3.53;1.52;;;19.60;99.90;;;;;;4994230;28;20471;-69
2022/06/08 09:59:47;;;;;;;1.58;1.40;;;19.60;99.90;;;;;;4994284;28;20379;-68
2022/06/08 10:02:46;;;;;;;2.90;2.15;;;19.60;99.90;;;;;;4992071;28;20487;-69
2022/06/08 10:05:29;;;;;;;2.10;1.58;;;19.60;99.90;;;;;;4994162;28;20050;-69
2022/06/08 10:08:22;;;;;;;2.05;1.40;;;19.60;99.90;;;;;;4993838;28;20050;-69
2022/06/08 10:14:21;;;;;;;2.15;1.40;;;19.70;99.90;;;;;;4992869;28;20085;-69
2022/06/08 10:16:56;;;;;;;2.10;1.25;;;19.70;99.90;;;;;;4994173;28;20145;-68
2022/06/08 10:19:54;;;;;;;2.15;1.05;;;19.70;99.90;;;;;;4994399;28;20389;-68
2022/06/08 10:22:23;;;;;;;2.42;1.02;;;19.70;99.90;;;;;;4994682;28;20090;-68
2022/06/08 10:25:00;;;;;;;4.00;1.80;;;19.70;99.90;;;;;;4993020;28;20046;-68
2022/06/08 10:27:45;;;;;;;2.97;1.20;;;19.80;99.90;;;;;;4993673;28;20048;-68
2022/06/08 10:30:43;;;;;;;2.58;1.15;;;19.80;99.90;;;;;;4993815;28;20081;-68
2022/06/08 10:33:19;;;;;;;2.03;0.98;;;19.90;99.90;;;;;;4992734;28;20402;-67
2022/06/08 10:35:55;;;;;;;2.67;1.00;;;20.10;99.90;;;;;;4994263;28;20064;-68
2022/06/08 10:38:36;;;;;;;1.92;1.00;;;20.30;99.90;;;;;;4992702;28;20050;-67
2022/06/08 10:42:39;;;;;;;3.60;1.70;;;20.40;99.90;;;;;;4994438;28;20136;-68
2022/06/08 10:43:51;;;;;;;3.17;2.05;;;20.40;99.90;;;;;;4994258;28;20049;-68
2022/06/08 10:46:51;;;;;;;2.42;1.50;;;20.50;99.90;;;;;;4992941;28;20050;-67
2022/06/08 10:49:39;;;;;;;1.95;1.60;;;20.60;99.90;;;;;;4982053;28;20058;-68
2022/06/08 10:52:17;;;;;;;3.15;2.38;;;20.70;99.90;;;;;;4974067;28;20058;-68
2022/06/08 10:54:54;;;;;;;4.07;1.98;;;20.70;99.90;;;;;;4993774;28;20136;-67
2022/06/08 10:57:48;;;;;;;4.03;2.00;;;20.70;99.90;;;;;;4993856;28;20042;-68
2022/06/08 11:00:20;;;;;;;1.55;1.45;;;20.70;99.90;;;;;;4993416;28;20054;-68
2022/06/08 11:03:03;;;;;;;2.87;2.20;;;20.70;99.90;;;;;;4993354;28;20057;-68
2022/06/08 11:05:45;;;;;;;3.70;2.45;;;20.60;99.90;;;;;;4993846;28;20104;-67
2022/06/08 11:08:22;;;;;;;3.97;2.50;;;20.60;99.90;;;;;;4993566;28;20046;-68
2022/06/08 11:10:54;;;;;;;4.18;2.08;;;20.60;99.90;;;;;;4993914;28;20133;-68
2022/06/08 11:13:24;;;;;;;2.40;1.67;;;20.50;99.90;;;;;;4993975;28;20112;-68
2022/06/08 11:15:52;;;;;;;3.83;2.00;;;20.50;99.90;;;;;;4997086;28;20046;-68
2022/06/08 11:18:25;;;;;;;2.38;1.88;;;20.60;99.90;;;;;;4997810;28;20053;-67
2022/06/08 11:21:12;;;;;;;2.55;1.30;;;20.70;99.90;;;;;;4998644;28;20077;-68
2022/06/08 11:23:54;;;;;;;3.63;1.40;;;20.70;99.90;;;;;;4997597;28;20458;-67
2022/06/08 11:26:25;;;;;;;3.67;1.50;;;20.80;99.90;;;;;;4997206;28;20533;-68
2022/06/08 11:28:56;;;;;;;2.55;1.58;;;20.80;99.90;;;;;;4997883;28;20097;-67
2022/06/08 11:31:27;;;;;;;3.10;1.17;;;20.70;99.90;;;;;;4997534;28;20529;-67
2022/06/08 11:34:20;;;;;;;1.73;1.10;;;20.70;99.90;;;;;;4997916;28;20491;-68
2022/06/08 11:36:49;;;;;;;;;;;20.70;99.90;;;;;;4998531;28;20050;-68
2022/06/08 11:39:35;;;;;;;1.67;1.00;;;20.60;99.90;;;;;;4997756;28;19965;-68
2022/06/08 11:42:15;;;;;;;2.05;1.10;;;20.60;99.90;;;;;;4997696;28;20081;-68
2022/06/08 11:44:47;;;;;;;2.45;1.20;;;20.60;99.90;;;;;;4981693;28;20384;-68
2022/06/08 11:47:20;;;;;;;1.90;1.15;;;20.60;99.90;;;;;;4997634;28;20054;-68
2022/06/08 11:49:57;;;;;;;1.73;1.10;;;20.70;99.90;;;;;;4997728;28;20054;-68
2022/06/08 11:52:30;;;;;;;1.73;1.00;;;20.80;99.90;;;;;;4997436;28;20042;-68
2022/06/08 11:55:01;;;;;;;2.13;0.90;;;20.80;99.90;;;;;;4996282;28;20101;-68
2022/06/08 11:57:28;;;;;;;3.13;0.88;;;20.70;99.90;;;;;;4997880;28;20057;-68
2022/06/08 11:59:57;;;;;;;2.45;1.02;;;20.70;99.90;;;;;;4996223;28;20046;-68
2022/06/08 12:02:36;;;;;;;1.55;0.90;;;20.70;99.90;;;;;;4995953;28;20093;-68
2022/06/08 12:05:03;;;;;;;1.80;0.93;;;20.70;99.90;;;;;;4998073;28;20384;-68
2022/06/08 12:08:01;;;;;;;1.50;0.77;;;20.70;99.90;;;;;;4996952;28;20494;-68
2022/06/08 12:10:31;;;;;;;2.17;0.90;;;20.80;99.90;;;;;;4997918;28;20042;-68
2022/06/08 12:12:58;;;;;;;1.25;0.80;;;20.80;99.90;;;;;;4996426;28;20042;-68
2022/06/08 12:15:35;;;;;;;1.63;1.00;;;21.00;99.90;;;;;;4997082;28;20049;-68
2022/06/08 12:18:23;;;;;;;1.60;1.10;;;21.00;99.90;;;;;;4997113;28;20056;-68
2022/06/08 12:21:19;;;;;;;2.03;1.00;;;21.10;99.90;;;;;;4996897;28;20371;-68
2022/06/08 12:24:02;;;;;;;2.55;1.20;;;21.10;99.90;;;;;;4996013;28;20050;-68
2022/06/08 12:26:46;;;;;;;3.22;1.80;;;21.10;99.90;;;;;;4995188;28;20145;-68
2022/06/08 12:29:25;;;;;;;2.13;1.45;;;21.20;99.90;;;;;;4997871;28;20395;-68
2022/06/08 12:32:06;;;;;;;3.92;2.03;;;21.20;99.90;;;;;;4996639;28;20054;-68
2022/06/08 12:34:45;;;;;;;3.08;1.52;;;21.30;99.90;;;;;;4996725;28;20560;-68
2022/06/08 12:37:36;;;;;;;2.88;1.50;;;21.40;99.90;;;;;;4996568;28;20065;-68
2022/06/08 12:40:17;;;;;;;2.50;2.22;;;21.40;99.90;;;;;;4997500;28;20053;-68
2022/06/08 12:42:47;;;;;;;3.25;2.60;;;21.40;99.90;;;;;;4997323;28;20125;-68
2022/06/08 12:45:33;;;;;;;5.38;2.67;;;21.40;99.90;;;;;;4996551;28;20124;-68
2022/06/08 12:48:01;;;;;;;2.75;2.35;;;21.30;99.90;;;;;;4997112;28;20053;-68
2022/06/08 12:50:32;;;;;;;3.30;1.77;;;21.20;99.90;;;;;;4997099;28;20050;-68
2022/06/08 12:53:02;;;;;;;2.90;1.70;;;21.20;99.90;;;;;;4996117;28;20053;-68
2022/06/08 12:55:29;;;;;;;3.17;1.40;;;21.10;99.90;;;;;;4996447;28;20100;-67
2022/06/08 12:57:55;;;;;;;3.50;0.70;;;21.00;99.90;;;;;;4995353;28;20073;-72
2022/06/08 13:00:26;;;;;;;1.33;0.55;;;20.70;99.90;;;;;;4996304;28;20050;-76
2022/06/08 13:02:52;;;;;;;0.80;0.40;;;20.30;99.90;;;;;;4995518;28;20108;-73
2022/06/08 13:05:25;;;;;;;1.15;0.60;;;19.80;99.90;;;;;;4995987;28;20054;-72
2022/06/08 13:07:54;;;;;;;2.17;0.60;;;19.40;99.90;;;;;;4995488;28;20398;-78
2022/06/08 13:10:21;;;;;;;2.70;1.00;;;19.00;99.90;;;;;;4995091;28;20053;-72
2022/06/08 13:12:54;;;;;;;2.38;0.57;;;18.70;99.90;;;;;;4994821;28;20049;-72
2022/06/08 13:15:19;;;;;;;1.73;0.60;;;18.30;99.90;;;;;;4995908;28;20184;-72
2022/06/08 13:17:46;;;;;;;3.22;0.70;;;18.00;99.90;;;;;;4995817;28;20542;-73